sensor_id;sensor_type;location;lat;lon;timestamp;pressure;altitude;pressure_sealevel;temperature;humidity
78343;BME280;67618;52.444;21.192;2023-02-17T00:04:31;100755.77;;;3.48;80.05
78343;BME280;67618;52.444;21.192;2023-02-17T00:14:32;100750.45;;;3.44;80.35
78343;BME280;67618;52.444;21.192;2023-02-17T00:24:37;100752.36;;;3.44;80.41
78343;BME280;67618;52.444;21.192;2023-02-17T00:34:38;100746.17;;;3.45;80.34
78343;BME280;67618;52.444;21.192;2023-02-17T00:44:38;100742.17;;;3.56;80.33
78343;BME280;67618;52.444;21.192;2023-02-17T00:54:39;100729.73;;;3.67;80.14
78343;BME280;67618;52.444;21.192;2023-02-17T01:04:40;100718.06;;;3.75;79.92
78343;BME280;67618;52.444;21.192;2023-02-17T01:14:41;100709.77;;;3.87;79.75
78343;BME280;67618;52.444;21.192;2023-02-17T01:24:41;100700.42;;;3.86;79.41
78343;BME280;67618;52.444;21.192;2023-02-17T01:34:42;100691.75;;;3.85;79.42
78343;BME280;67618;52.444;21.192;2023-02-17T01:45:36;100686.52;;;3.89;79.46
78343;BME280;67618;52.444;21.192;2023-02-17T01:55:30;100678.42;;;3.96;79.47
78343;BME280;67618;52.444;21.192;2023-02-17T02:05:32;100677.31;;;3.99;79.47
78343;BME280;67618;52.444;21.192;2023-02-17T02:15:39;100663.27;;;3.98;79.60
78343;BME280;67618;52.444;21.192;2023-02-17T02:35:59;100638.20;;;3.90;80.04
78343;BME280;67618;52.444;21.192;2023-02-17T02:46:02;100635.61;;;3.90;80.45
78343;BME280;67618;52.444;21.192;2023-02-17T03:06:48;100642.98;;;3.82;80.89
78343;BME280;67618;52.444;21.192;2023-02-17T03:16:51;100646.49;;;3.78;81.26
78343;BME280;67618;52.444;21.192;2023-02-17T03:26:52;100637.36;;;3.84;81.49
78343;BME280;67618;52.444;21.192;2023-02-17T03:36:52;100619.04;;;3.90;81.52
78343;BME280;67618;52.444;21.192;2023-02-17T03:46:53;100621.53;;;3.93;81.69
78343;BME280;67618;52.444;21.192;2023-02-17T03:56:54;100643.52;;;3.95;81.96
78343;BME280;67618;52.444;21.192;2023-02-17T04:06:54;100630.61;;;3.90;82.47
78343;BME280;67618;52.444;21.192;2023-02-17T04:16:55;100620.05;;;3.89;82.86
78343;BME280;67618;52.444;21.192;2023-02-17T04:26:56;100617.70;;;3.92;83.17
78343;BME280;67618;52.444;21.192;2023-02-17T04:36:56;100613.21;;;3.98;83.24
78343;BME280;67618;52.444;21.192;2023-02-17T04:46:57;100603.05;;;4.06;83.32
78343;BME280;67618;52.444;21.192;2023-02-17T04:56:58;100596.11;;;4.12;83.47
78343;BME280;67618;52.444;21.192;2023-02-17T05:06:59;100586.94;;;4.18;83.59
78343;BME280;67618;52.444;21.192;2023-02-17T05:17:00;100590.34;;;4.23;83.82
78343;BME280;67618;52.444;21.192;2023-02-17T05:27:00;100558.86;;;4.30;83.85
78343;BME280;67618;52.444;21.192;2023-02-17T05:37:01;100552.40;;;4.41;83.61
78343;BME280;67618;52.444;21.192;2023-02-17T05:47:02;100564.58;;;4.44;83.51
78343;BME280;67618;52.444;21.192;2023-02-17T05:57:04;100567.73;;;4.46;83.51
78343;BME280;67618;52.444;21.192;2023-02-17T06:07:05;100550.58;;;4.52;83.51
78343;BME280;67618;52.444;21.192;2023-02-17T06:17:05;100555.15;;;4.70;83.27
78343;BME280;67618;52.444;21.192;2023-02-17T06:27:06;100554.84;;;4.79;83.14
78343;BME280;67618;52.444;21.192;2023-02-17T06:37:07;100550.96;;;4.84;82.95
78343;BME280;67618;52.444;21.192;2023-02-17T06:47:07;100542.88;;;4.86;82.58
78343;BME280;67618;52.444;21.192;2023-02-17T06:57:08;100537.11;;;4.83;82.76
78343;BME280;67618;52.444;21.192;2023-02-17T07:07:09;100527.92;;;4.82;83.02
78343;BME280;67618;52.444;21.192;2023-02-17T07:17:11;100527.86;;;4.80;82.99
78343;BME280;67618;52.444;21.192;2023-02-17T07:27:11;100520.65;;;4.82;83.01
78343;BME280;67618;52.444;21.192;2023-02-17T07:37:12;100515.98;;;4.89;82.96
78343;BME280;67618;52.444;21.192;2023-02-17T07:47:13;100511.27;;;4.96;82.77
78343;BME280;67618;52.444;21.192;2023-02-17T07:57:14;100510.54;;;5.02;82.37
78343;BME280;67618;52.444;21.192;2023-02-17T08:07:14;100504.02;;;5.05;81.82
78343;BME280;67618;52.444;21.192;2023-02-17T08:17:15;100506.52;;;5.09;81.50
78343;BME280;67618;52.444;21.192;2023-02-17T08:27:17;100496.44;;;5.16;81.08
78343;BME280;67618;52.444;21.192;2023-02-17T08:37:18;100488.25;;;5.22;80.67
78343;BME280;67618;52.444;21.192;2023-02-17T08:47:19;100483.97;;;5.24;80.36
78343;BME280;67618;52.444;21.192;2023-02-17T08:57:19;100475.20;;;5.27;80.01
78343;BME280;67618;52.444;21.192;2023-02-17T09:07:20;100470.09;;;5.32;80.05
78343;BME280;67618;52.444;21.192;2023-02-17T09:17:21;100463.67;;;5.40;79.77
78343;BME280;67618;52.444;21.192;2023-02-17T09:27:21;100454.46;;;5.48;79.37
78343;BME280;67618;52.444;21.192;2023-02-17T09:37:22;100438.73;;;5.59;79.31
78343;BME280;67618;52.444;21.192;2023-02-17T09:47:36;100423.06;;;5.84;78.87
78343;BME280;67618;52.444;21.192;2023-02-17T09:57:50;100413.27;;;6.00;78.52
78343;BME280;67618;52.444;21.192;2023-02-17T10:07:59;100411.40;;;6.02;78.72
78343;BME280;67618;52.444;21.192;2023-02-17T10:28:17;100393.64;;;5.86;81.07
78343;BME280;67618;52.444;21.192;2023-02-17T11:08:49;100329.56;;;5.97;83.19
78343;BME280;67618;52.444;21.192;2023-02-17T11:18:51;100304.59;;;6.10;83.00
78343;BME280;67618;52.444;21.192;2023-02-17T11:28:53;100281.86;;;6.22;82.16
78343;BME280;67618;52.444;21.192;2023-02-17T11:38:54;100250.10;;;6.34;82.15
78343;BME280;67618;52.444;21.192;2023-02-17T11:49:17;100225.92;;;6.42;82.18
78343;BME280;67618;52.444;21.192;2023-02-17T11:59:49;100210.11;;;6.56;81.97
78343;BME280;67618;52.444;21.192;2023-02-17T12:10:02;100184.89;;;6.68;82.00
78343;BME280;67618;52.444;21.192;2023-02-17T12:40:43;100110.00;;;6.72;81.80
78343;BME280;67618;52.444;21.192;2023-02-17T12:50:56;100097.52;;;6.73;81.95
78343;BME280;67618;52.444;21.192;2023-02-17T13:01:10;100082.61;;;6.73;82.29
78343;BME280;67618;52.444;21.192;2023-02-17T13:11:28;100070.67;;;6.79;82.29
78343;BME280;67618;52.444;21.192;2023-02-17T13:21:32;100051.98;;;6.84;82.49
78343;BME280;67618;52.444;21.192;2023-02-17T13:31:43;100031.34;;;6.85;82.69
78343;BME280;67618;52.444;21.192;2023-02-17T13:41:47;100029.42;;;6.82;83.70
78343;BME280;67618;52.444;21.192;2023-02-17T13:51:47;100005.83;;;6.84;84.28
78343;BME280;67618;52.444;21.192;2023-02-17T14:01:48;99989.73;;;6.87;84.72
78343;BME280;67618;52.444;21.192;2023-02-17T14:11:51;99976.36;;;6.89;84.91
78343;BME280;67618;52.444;21.192;2023-02-17T14:21:59;99954.52;;;6.91;85.42
78343;BME280;67618;52.444;21.192;2023-02-17T14:32:01;99931.80;;;6.93;85.55
78343;BME280;67618;52.444;21.192;2023-02-17T14:42:01;99905.79;;;6.99;85.24
78343;BME280;67618;52.444;21.192;2023-02-17T14:52:16;99873.88;;;7.05;85.56
78343;BME280;67618;52.444;21.192;2023-02-17T15:02:19;99843.86;;;7.08;85.68
78343;BME280;67618;52.444;21.192;2023-02-17T15:12:20;99831.89;;;7.09;86.15
78343;BME280;67618;52.444;21.192;2023-02-17T15:22:21;99815.06;;;7.10;86.69
78343;BME280;67618;52.444;21.192;2023-02-17T15:32:22;99792.50;;;7.13;86.99
78343;BME280;67618;52.444;21.192;2023-02-17T15:42:22;99772.89;;;7.15;86.32
78343;BME280;67618;52.444;21.192;2023-02-17T15:52:23;99746.86;;;7.18;86.46
78343;BME280;67618;52.444;21.192;2023-02-17T16:23:43;99683.80;;;7.47;85.39
78343;BME280;67618;52.444;21.192;2023-02-17T16:33:43;99667.45;;;7.53;85.35
78343;BME280;67618;52.444;21.192;2023-02-17T16:43:44;99655.50;;;7.48;85.60
78343;BME280;67618;52.444;21.192;2023-02-17T16:53:45;99640.23;;;7.42;86.09
78343;BME280;67618;52.444;21.192;2023-02-17T17:03:46;99614.73;;;7.40;86.26
78343;BME280;67618;52.444;21.192;2023-02-17T17:13:47;99583.98;;;7.42;86.31
78343;BME280;67618;52.444;21.192;2023-02-17T17:23:48;99554.46;;;7.41;86.34
78343;BME280;67618;52.444;21.192;2023-02-17T17:33:49;99528.95;;;7.41;86.65
78343;BME280;67618;52.444;21.192;2023-02-17T17:43:50;99506.89;;;7.44;86.63
78343;BME280;67618;52.444;21.192;2023-02-17T17:53:51;99491.60;;;7.47;86.88
78343;BME280;67618;52.444;21.192;2023-02-17T18:03:52;99471.42;;;7.50;86.75
78343;BME280;67618;52.444;21.192;2023-02-17T18:13:56;99452.14;;;7.54;86.78
78343;BME280;67618;52.444;21.192;2023-02-17T18:23:57;99444.83;;;7.56;86.90
78343;BME280;67618;52.444;21.192;2023-02-17T18:33:58;99429.01;;;7.59;87.07
78343;BME280;67618;52.444;21.192;2023-02-17T18:44:01;99419.92;;;7.65;87.77
78343;BME280;67618;52.444;21.192;2023-02-17T18:54:03;99402.01;;;7.68;87.74
78343;BME280;67618;52.444;21.192;2023-02-17T19:04:04;99389.82;;;7.73;87.53
78343;BME280;67618;52.444;21.192;2023-02-17T19:14:04;99382.30;;;7.78;87.79
78343;BME280;67618;52.444;21.192;2023-02-17T19:24:05;99366.98;;;7.83;88.19
78343;BME280;67618;52.444;21.192;2023-02-17T19:34:06;99352.48;;;7.91;88.47
78343;BME280;67618;52.444;21.192;2023-02-17T19:44:07;99345.98;;;7.98;88.79
78343;BME280;67618;52.444;21.192;2023-02-17T19:54:08;99336.65;;;8.09;88.74
78343;BME280;67618;52.444;21.192;2023-02-17T20:04:09;99337.88;;;8.23;89.39
78343;BME280;67618;52.444;21.192;2023-02-17T20:14:10;99325.01;;;8.41;89.35
78343;BME280;67618;52.444;21.192;2023-02-17T20:24:12;99322.17;;;8.60;89.05
78343;BME280;67618;52.444;21.192;2023-02-17T20:34:30;99308.76;;;8.73;88.77
78343;BME280;67618;52.444;21.192;2023-02-17T20:44:31;99281.80;;;8.85;88.53
78343;BME280;67618;52.444;21.192;2023-02-17T20:54:32;99280.77;;;8.95;88.45
78343;BME280;67618;52.444;21.192;2023-02-17T21:04:33;99276.61;;;9.06;88.24
78343;BME280;67618;52.444;21.192;2023-02-17T21:14:34;99245.48;;;9.14;87.43
78343;BME280;67618;52.444;21.192;2023-02-17T21:24:35;99248.17;;;9.19;87.01
78343;BME280;67618;52.444;21.192;2023-02-17T21:34:37;99245.54;;;9.21;86.39
78343;BME280;67618;52.444;21.192;2023-02-17T21:44:38;99232.34;;;9.19;85.79
78343;BME280;67618;52.444;21.192;2023-02-17T21:54:38;99246.63;;;9.19;85.49
78343;BME280;67618;52.444;21.192;2023-02-17T22:04:39;99265.91;;;9.21;84.85
78343;BME280;67618;52.444;21.192;2023-02-17T22:14:40;99243.36;;;9.26;83.35
78343;BME280;67618;52.444;21.192;2023-02-17T22:24:40;99237.27;;;9.25;81.43
78343;BME280;67618;52.444;21.192;2023-02-17T22:34:41;99245.35;;;9.12;80.40
78343;BME280;67618;52.444;21.192;2023-02-17T22:44:42;99259.79;;;8.90;77.23
78343;BME280;67618;52.444;21.192;2023-02-17T22:54:42;99271.80;;;8.67;74.94
78343;BME280;67618;52.444;21.192;2023-02-17T23:04:43;99269.86;;;8.43;74.68
78343;BME280;67618;52.444;21.192;2023-02-17T23:14:44;99273.27;;;8.36;74.64
78343;BME280;67618;52.444;21.192;2023-02-17T23:24:46;99281.32;;;8.31;71.81
78343;BME280;67618;52.444;21.192;2023-02-17T23:34:46;99290.25;;;8.25;67.86
78343;BME280;67618;52.444;21.192;2023-02-17T23:44:47;99292.30;;;8.11;65.76
78343;BME280;67618;52.444;21.192;2023-02-17T23:54:49;99288.54;;;7.91;64.24
